sensor_id;sensor_type;location;lat;lon;timestamp;P1;durP1;ratioP1;P2;durP2;ratioP2
34521;SDS011;25561;48.888;8.736;2023-01-25T06:50:18;99.75;;;31.17;;
34521;SDS011;25561;48.888;8.736;2023-01-25T06:53:20;94.68;;;33.08;;
34521;SDS011;25561;48.888;8.736;2023-01-25T06:56:22;92.28;;;32.03;;
34521;SDS011;25561;48.888;8.736;2023-01-25T06:59:24;100.93;;;37.05;;
34521;SDS011;25561;48.888;8.736;2023-01-25T07:02:26;97.03;;;34.05;;
34521;SDS011;25561;48.888;8.736;2023-01-25T07:05:28;91.90;;;33.03;;
34521;SDS011;25561;48.888;8.736;2023-01-25T07:08:31;94.80;;;34.90;;
34521;SDS011;25561;48.888;8.736;2023-01-25T07:11:33;70.43;;;28.27;;
34521;SDS011;25561;48.888;8.736;2023-01-25T07:14:36;82.13;;;30.50;;
34521;SDS011;25561;48.888;8.736;2023-01-25T07:17:38;88.85;;;32.38;;
34521;SDS011;25561;48.888;8.736;2023-01-25T07:20:39;85.22;;;29.33;;
34521;SDS011;25561;48.888;8.736;2023-01-25T07:23:42;80.95;;;29.60;;
34521;SDS011;25561;48.888;8.736;2023-01-25T07:26:45;81.90;;;30.30;;
34521;SDS011;25561;48.888;8.736;2023-01-25T07:29:49;80.10;;;29.67;;
34521;SDS011;25561;48.888;8.736;2023-01-25T07:32:51;76.15;;;27.10;;
34521;SDS011;25561;48.888;8.736;2023-01-25T07:35:58;84.57;;;29.42;;
34521;SDS011;25561;48.888;8.736;2023-01-25T07:39:03;87.93;;;30.25;;
34521;SDS011;25561;48.888;8.736;2023-01-25T07:42:06;77.82;;;28.48;;
34521;SDS011;25561;48.888;8.736;2023-01-25T07:45:09;68.57;;;25.60;;
34521;SDS011;25561;48.888;8.736;2023-01-25T07:48:11;75.40;;;28.48;;
34521;SDS011;25561;48.888;8.736;2023-01-25T07:51:14;76.20;;;27.33;;
34521;SDS011;25561;48.888;8.736;2023-01-25T07:54:33;75.57;;;27.35;;
34521;SDS011;25561;48.888;8.736;2023-01-25T07:57:35;79.13;;;29.67;;
34521;SDS011;25561;48.888;8.736;2023-01-25T08:00:36;80.47;;;28.35;;
34521;SDS011;25561;48.888;8.736;2023-01-25T08:03:39;78.32;;;29.05;;
34521;SDS011;25561;48.888;8.736;2023-01-25T08:06:41;79.68;;;28.48;;
34521;SDS011;25561;48.888;8.736;2023-01-25T08:09:46;69.97;;;28.02;;
34521;SDS011;25561;48.888;8.736;2023-01-25T08:12:48;77.68;;;28.98;;
34521;SDS011;25561;48.888;8.736;2023-01-25T08:15:52;77.57;;;29.90;;
34521;SDS011;25561;48.888;8.736;2023-01-25T08:18:58;74.80;;;29.65;;
34521;SDS011;25561;48.888;8.736;2023-01-25T08:22:02;72.88;;;27.40;;
34521;SDS011;25561;48.888;8.736;2023-01-25T08:25:03;72.80;;;28.35;;
34521;SDS011;25561;48.888;8.736;2023-01-25T08:28:06;65.68;;;26.30;;
34521;SDS011;25561;48.888;8.736;2023-01-25T08:31:10;68.15;;;26.40;;
34521;SDS011;25561;48.888;8.736;2023-01-25T08:34:16;62.05;;;24.27;;
34521;SDS011;25561;48.888;8.736;2023-01-25T08:37:18;69.30;;;26.70;;
34521;SDS011;25561;48.888;8.736;2023-01-25T08:40:20;58.20;;;25.02;;
34521;SDS011;25561;48.888;8.736;2023-01-25T08:43:22;55.53;;;23.25;;
34521;SDS011;25561;48.888;8.736;2023-01-25T08:46:25;63.67;;;25.73;;
34521;SDS011;25561;48.888;8.736;2023-01-25T08:49:31;63.30;;;24.67;;
34521;SDS011;25561;48.888;8.736;2023-01-25T08:52:34;53.42;;;23.92;;
34521;SDS011;25561;48.888;8.736;2023-01-25T08:55:36;52.53;;;23.67;;
34521;SDS011;25561;48.888;8.736;2023-01-25T08:58:40;61.47;;;26.38;;
34521;SDS011;25561;48.888;8.736;2023-01-25T09:01:45;58.85;;;23.77;;
34521;SDS011;25561;48.888;8.736;2023-01-25T09:04:47;55.20;;;22.58;;
34521;SDS011;25561;48.888;8.736;2023-01-25T09:07:49;48.65;;;20.67;;
34521;SDS011;25561;48.888;8.736;2023-01-25T09:10:51;47.67;;;20.88;;
34521;SDS011;25561;48.888;8.736;2023-01-25T09:13:54;46.65;;;20.50;;
34521;SDS011;25561;48.888;8.736;2023-01-25T09:16:56;46.20;;;20.25;;
34521;SDS011;25561;48.888;8.736;2023-01-25T09:19:59;45.72;;;20.35;;
34521;SDS011;25561;48.888;8.736;2023-01-25T09:23:01;45.28;;;20.52;;
34521;SDS011;25561;48.888;8.736;2023-01-25T09:26:04;45.97;;;21.17;;
34521;SDS011;25561;48.888;8.736;2023-01-25T09:29:07;43.17;;;20.50;;
34521;SDS011;25561;48.888;8.736;2023-01-25T09:32:11;42.72;;;19.33;;
34521;SDS011;25561;48.888;8.736;2023-01-25T09:35:14;45.30;;;19.52;;
34521;SDS011;25561;48.888;8.736;2023-01-25T09:38:17;50.15;;;20.17;;
34521;SDS011;25561;48.888;8.736;2023-01-25T09:44:49;40.38;;;16.63;;
34521;SDS011;25561;48.888;8.736;2023-01-25T09:51:38;38.58;;;17.45;;
34521;SDS011;25561;48.888;8.736;2023-01-25T09:54:46;38.63;;;17.67;;
34521;SDS011;25561;48.888;8.736;2023-01-25T09:57:49;38.85;;;18.08;;
34521;SDS011;25561;48.888;8.736;2023-01-25T10:01:06;42.90;;;16.63;;
34521;SDS011;25561;48.888;8.736;2023-01-25T10:04:39;39.80;;;15.98;;
34521;SDS011;25561;48.888;8.736;2023-01-25T10:11:15;33.67;;;16.70;;
34521;SDS011;25561;48.888;8.736;2023-01-25T10:14:25;41.47;;;18.23;;
34521;SDS011;25561;48.888;8.736;2023-01-25T10:17:34;37.75;;;18.13;;
34521;SDS011;25561;48.888;8.736;2023-01-25T10:20:40;38.70;;;18.13;;
34521;SDS011;25561;48.888;8.736;2023-01-25T10:23:56;31.13;;;14.10;;
34521;SDS011;25561;48.888;8.736;2023-01-25T10:27:19;33.35;;;14.77;;
34521;SDS011;25561;48.888;8.736;2023-01-25T10:30:31;33.72;;;15.07;;
34521;SDS011;25561;48.888;8.736;2023-01-25T10:33:42;34.53;;;15.77;;
34521;SDS011;25561;48.888;8.736;2023-01-25T10:36:48;39.20;;;16.83;;
34521;SDS011;25561;48.888;8.736;2023-01-25T10:40:02;42.05;;;16.63;;
34521;SDS011;25561;48.888;8.736;2023-01-25T10:43:17;35.90;;;16.80;;
34521;SDS011;25561;48.888;8.736;2023-01-25T10:46:22;34.97;;;15.75;;
34521;SDS011;25561;48.888;8.736;2023-01-25T10:49:57;34.60;;;14.93;;
34521;SDS011;25561;48.888;8.736;2023-01-25T10:52:55;33.30;;;15.20;;
34521;SDS011;25561;48.888;8.736;2023-01-25T10:55:59;31.35;;;15.40;;
34521;SDS011;25561;48.888;8.736;2023-01-25T10:59:26;28.70;;;14.65;;
34521;SDS011;25561;48.888;8.736;2023-01-25T11:02:44;34.30;;;15.85;;
34521;SDS011;25561;48.888;8.736;2023-01-25T11:05:55;32.60;;;16.00;;
34521;SDS011;25561;48.888;8.736;2023-01-25T11:08:57;31.50;;;15.80;;
34521;SDS011;25561;48.888;8.736;2023-01-25T11:12:02;26.02;;;13.18;;
34521;SDS011;25561;48.888;8.736;2023-01-25T11:15:22;31.25;;;13.52;;
34521;SDS011;25561;48.888;8.736;2023-01-25T11:18:29;32.67;;;14.10;;
34521;SDS011;25561;48.888;8.736;2023-01-25T11:21:34;34.53;;;16.13;;
34521;SDS011;25561;48.888;8.736;2023-01-25T11:24:35;33.83;;;14.77;;
34521;SDS011;25561;48.888;8.736;2023-01-25T11:27:38;36.55;;;15.82;;
34521;SDS011;25561;48.888;8.736;2023-01-25T11:30:39;38.55;;;16.50;;
34521;SDS011;25561;48.888;8.736;2023-01-25T11:33:41;31.70;;;14.60;;
34521;SDS011;25561;48.888;8.736;2023-01-25T11:40:28;32.13;;;15.23;;
34521;SDS011;25561;48.888;8.736;2023-01-25T11:43:43;32.13;;;14.75;;
34521;SDS011;25561;48.888;8.736;2023-01-25T11:47:12;31.23;;;13.95;;
34521;SDS011;25561;48.888;8.736;2023-01-25T11:50:27;37.33;;;14.98;;
34521;SDS011;25561;48.888;8.736;2023-01-25T11:54:03;33.65;;;13.45;;
34521;SDS011;25561;48.888;8.736;2023-01-25T11:57:29;35.00;;;14.52;;
34521;SDS011;25561;48.888;8.736;2023-01-25T12:07:34;33.00;;;14.90;;
34521;SDS011;25561;48.888;8.736;2023-01-25T12:13:58;37.97;;;16.88;;
34521;SDS011;25561;48.888;8.736;2023-01-25T12:17:23;37.30;;;16.88;;
34521;SDS011;25561;48.888;8.736;2023-01-25T12:20:40;31.17;;;14.98;;
34521;SDS011;25561;48.888;8.736;2023-01-25T12:24:03;33.45;;;14.75;;
34521;SDS011;25561;48.888;8.736;2023-01-25T12:27:20;34.42;;;15.00;;
34521;SDS011;25561;48.888;8.736;2023-01-25T12:30:52;32.75;;;15.30;;
34521;SDS011;25561;48.888;8.736;2023-01-25T12:34:02;37.00;;;15.93;;
34521;SDS011;25561;48.888;8.736;2023-01-25T12:37:12;33.05;;;16.08;;
34521;SDS011;25561;48.888;8.736;2023-01-25T12:40:40;31.08;;;15.52;;
34521;SDS011;25561;48.888;8.736;2023-01-25T12:48:11;35.00;;;16.25;;
34521;SDS011;25561;48.888;8.736;2023-01-25T12:50:58;38.72;;;18.33;;
34521;SDS011;25561;48.888;8.736;2023-01-25T12:54:01;39.20;;;16.73;;
34521;SDS011;25561;48.888;8.736;2023-01-25T12:57:10;36.08;;;15.80;;
34521;SDS011;25561;48.888;8.736;2023-01-25T13:00:27;36.58;;;17.50;;
34521;SDS011;25561;48.888;8.736;2023-01-25T13:03:59;34.30;;;14.98;;
34521;SDS011;25561;48.888;8.736;2023-01-25T13:07:33;38.28;;;18.65;;
34521;SDS011;25561;48.888;8.736;2023-01-25T13:10:43;39.67;;;17.02;;
34521;SDS011;25561;48.888;8.736;2023-01-25T13:13:51;37.13;;;17.25;;
34521;SDS011;25561;48.888;8.736;2023-01-25T13:16:53;39.00;;;17.35;;
34521;SDS011;25561;48.888;8.736;2023-01-25T13:23:49;36.17;;;16.73;;
34521;SDS011;25561;48.888;8.736;2023-01-25T13:27:28;38.10;;;16.90;;
34521;SDS011;25561;48.888;8.736;2023-01-25T13:30:32;37.28;;;15.63;;
34521;SDS011;25561;48.888;8.736;2023-01-25T13:33:35;36.22;;;16.85;;
34521;SDS011;25561;48.888;8.736;2023-01-25T13:36:41;39.72;;;17.33;;
34521;SDS011;25561;48.888;8.736;2023-01-25T13:39:46;36.15;;;16.58;;
34521;SDS011;25561;48.888;8.736;2023-01-25T13:46:14;34.17;;;16.40;;
34521;SDS011;25561;48.888;8.736;2023-01-25T13:49:21;44.53;;;18.30;;
34521;SDS011;25561;48.888;8.736;2023-01-25T13:52:28;36.33;;;17.15;;
34521;SDS011;25561;48.888;8.736;2023-01-25T13:55:40;41.75;;;18.52;;
34521;SDS011;25561;48.888;8.736;2023-01-25T13:58:44;40.60;;;17.08;;
34521;SDS011;25561;48.888;8.736;2023-01-25T14:01:48;44.30;;;18.03;;
34521;SDS011;25561;48.888;8.736;2023-01-25T14:04:51;40.95;;;16.83;;
34521;SDS011;25561;48.888;8.736;2023-01-25T14:07:54;41.33;;;19.55;;
34521;SDS011;25561;48.888;8.736;2023-01-25T14:10:57;38.80;;;18.40;;
34521;SDS011;25561;48.888;8.736;2023-01-25T14:14:01;36.72;;;16.63;;
34521;SDS011;25561;48.888;8.736;2023-01-25T14:17:18;31.13;;;15.27;;
34521;SDS011;25561;48.888;8.736;2023-01-25T14:20:22;41.70;;;17.58;;
34521;SDS011;25561;48.888;8.736;2023-01-25T14:23:26;39.28;;;17.13;;
34521;SDS011;25561;48.888;8.736;2023-01-25T14:26:30;33.35;;;15.02;;
34521;SDS011;25561;48.888;8.736;2023-01-25T14:29:38;35.97;;;16.15;;
34521;SDS011;25561;48.888;8.736;2023-01-25T14:32:40;33.10;;;14.98;;
34521;SDS011;25561;48.888;8.736;2023-01-25T14:35:42;34.45;;;17.02;;
34521;SDS011;25561;48.888;8.736;2023-01-25T14:39:12;34.75;;;16.48;;
34521;SDS011;25561;48.888;8.736;2023-01-25T14:42:20;34.78;;;16.35;;
34521;SDS011;25561;48.888;8.736;2023-01-25T14:45:22;33.78;;;15.75;;
34521;SDS011;25561;48.888;8.736;2023-01-25T14:48:34;33.90;;;15.27;;
34521;SDS011;25561;48.888;8.736;2023-01-25T14:51:46;30.50;;;15.55;;
34521;SDS011;25561;48.888;8.736;2023-01-25T14:54:50;35.50;;;15.98;;
34521;SDS011;25561;48.888;8.736;2023-01-25T14:57:57;36.15;;;16.05;;
34521;SDS011;25561;48.888;8.736;2023-01-25T15:01:01;34.65;;;16.35;;
34521;SDS011;25561;48.888;8.736;2023-01-25T15:04:03;40.35;;;16.02;;
34521;SDS011;25561;48.888;8.736;2023-01-25T15:07:29;34.38;;;15.15;;
34521;SDS011;25561;48.888;8.736;2023-01-25T15:10:52;32.42;;;15.50;;
34521;SDS011;25561;48.888;8.736;2023-01-25T15:13:59;35.90;;;16.75;;
34521;SDS011;25561;48.888;8.736;2023-01-25T15:17:02;37.80;;;15.90;;
34521;SDS011;25561;48.888;8.736;2023-01-25T15:20:04;31.40;;;14.73;;
34521;SDS011;25561;48.888;8.736;2023-01-25T15:23:38;35.15;;;15.10;;
34521;SDS011;25561;48.888;8.736;2023-01-25T15:26:30;31.02;;;14.75;;
34521;SDS011;25561;48.888;8.736;2023-01-25T15:29:33;39.45;;;17.08;;
34521;SDS011;25561;48.888;8.736;2023-01-25T15:32:35;40.20;;;17.50;;
34521;SDS011;25561;48.888;8.736;2023-01-25T15:35:37;36.53;;;16.17;;
34521;SDS011;25561;48.888;8.736;2023-01-25T15:38:39;38.30;;;16.38;;
34521;SDS011;25561;48.888;8.736;2023-01-25T15:41:41;39.72;;;16.77;;
34521;SDS011;25561;48.888;8.736;2023-01-25T15:44:43;34.60;;;15.65;;
34521;SDS011;25561;48.888;8.736;2023-01-25T15:47:45;38.33;;;17.33;;
34521;SDS011;25561;48.888;8.736;2023-01-25T15:50:46;39.88;;;15.30;;
34521;SDS011;25561;48.888;8.736;2023-01-25T15:53:50;36.08;;;16.00;;
34521;SDS011;25561;48.888;8.736;2023-01-25T15:56:54;42.00;;;18.90;;
34521;SDS011;25561;48.888;8.736;2023-01-25T15:59:57;41.08;;;18.30;;
34521;SDS011;25561;48.888;8.736;2023-01-25T16:03:02;38.42;;;17.33;;
34521;SDS011;25561;48.888;8.736;2023-01-25T16:06:05;43.50;;;18.13;;
34521;SDS011;25561;48.888;8.736;2023-01-25T16:09:22;46.25;;;18.08;;
34521;SDS011;25561;48.888;8.736;2023-01-25T16:12:27;43.08;;;17.10;;
34521;SDS011;25561;48.888;8.736;2023-01-25T16:15:28;46.13;;;19.77;;
34521;SDS011;25561;48.888;8.736;2023-01-25T16:18:30;47.97;;;18.63;;
34521;SDS011;25561;48.888;8.736;2023-01-25T16:21:32;44.55;;;19.13;;
34521;SDS011;25561;48.888;8.736;2023-01-25T16:24:34;46.53;;;19.83;;
34521;SDS011;25561;48.888;8.736;2023-01-25T16:30:41;56.80;;;19.98;;
34521;SDS011;25561;48.888;8.736;2023-01-25T16:33:45;56.00;;;22.52;;
34521;SDS011;25561;48.888;8.736;2023-01-25T16:36:47;59.47;;;22.20;;
34521;SDS011;25561;48.888;8.736;2023-01-25T16:39:51;49.95;;;20.67;;
34521;SDS011;25561;48.888;8.736;2023-01-25T16:42:53;49.78;;;21.13;;
34521;SDS011;25561;48.888;8.736;2023-01-25T16:45:56;66.40;;;26.60;;
34521;SDS011;25561;48.888;8.736;2023-01-25T16:48:59;57.53;;;24.85;;
34521;SDS011;25561;48.888;8.736;2023-01-25T16:52:04;69.78;;;24.85;;
34521;SDS011;25561;48.888;8.736;2023-01-25T16:55:07;58.20;;;23.33;;
34521;SDS011;25561;48.888;8.736;2023-01-25T16:58:11;60.72;;;22.63;;
